Share

Gladstone Airport, Queensland

Boyne Island (IQLDBOYN2) Elev 135 ft | 23.96 °S, 151.35 °E | Change Station

Current weather conditions updated 1 second ago

Clear
Clear
70.7 °F
Feels Like 74 °F
N
0.0
Wind Variable Wind from SW
Gusts 0.0 mph
Sunrise 6:11 AM
Sunset 5:35 PM
Moon Waning Gibbous

Today is forecast to be Cooler than yesterday.

Pressure 30.09 in
Visibility 6.2 miles
Clouds
Heat Index 74 °F
Dew Point 60 °F
Humidity 68%
Rainfall 0.00 in
Snow Depth Not available.
UV Not available.
Pollen Not available.
Air Quality Not available.
Flu Activity Not available.
METAR YBRK 211400Z AUTO 13003KT 9999 // NCD 19/16 Q1019

More Conditions Fewer Conditions

Pressure 30.09 in
Visibility 6.2 miles
Clouds
Heat Index 74 °F
Dew Point 60 °F
Humidity 68%
Rainfall 0.00 in
Snow Depth Not available.
UV Not available.
Pollen Not available.
Air Quality Not available.
Flu Activity Not available.
METAR YBRK 211400Z AUTO 13003KT 9999 // NCD 19/16 Q1019

More Conditions Fewer Conditions

10-Day Weather Forecast

Almanac

Astronomy

Apr. 22, 2014 Rise Set
Actual Time 6:11 AM EST 5:35 PM EST
Civil Twilight 5:48 AM EST 5:58 PM EST
Nautical Twilight 5:21 AM EST 6:25 PM EST
Astronomical Twilight 4:55 AM EST 6:51 PM EST
Moon 11:55 PM EST (4/22) 12:20 PM EST (4/22)
Length of Visible Light 12h 09m
Length of Day
11h 23m
Tomorrow will be 1m 15s shorter.
Waning Gibbous, 58% of the Moon is Illuminated
Apr 21
Waning Gibbous
Apr 22
Last Quarter
Apr 29
New
May 6
First Quarter
May 14
Full

Yesterday's Extremes

Country Highs Country Lows

Community

  • Bright Eyes
    Bright Eyes
  • Snowy Robin
    Snowy Robin
  • Sun Pillar and Geese
    Sun Pillar and Geese
  • Showers on the Way
    Showers on the Way
  • Easter Morning Fog
    Easter Morning Fog

WunderPhotos

Upload Photos

1,703,638 photos uploaded!

Nearby

Snow Depth

Not available.

Coastal Water Temperatures

Place Temperature
No Stations Reporting

Earthquake Activity

City Distance Mag. Time & Date
No recent earthquake activity has been reported nearby.
Minimum magnitude displayed is 2.5.

Nearby Weather Stations

Station Location Temp. Heat Index Dew Point Humidity Wind Precip. Elev Updated Type
Boyne Island, Boyne Island 70.7 °F 74 °F 60 °F 68% SW  at  0.0 mph 0.00 in / hr 135 ft 12:25 AM EST Rapid Fire

Show More Stations Show Fewer Stations

What do you think?

We're not finished. Please let us know what you like, what you don't like, and what you are still missing.